createdAt,value
2023-05-19T00:02:54.454Z,4.8
2023-05-19T00:05:54.414Z,4.9
2023-05-19T00:08:54.395Z,4.9
2023-05-19T00:11:54.401Z,4.9
2023-05-19T00:14:54.396Z,4.9
2023-05-19T00:17:54.453Z,4.9
2023-05-19T00:20:54.392Z,4.9
2023-05-19T00:23:54.400Z,5
2023-05-19T00:26:54.405Z,5
2023-05-19T00:29:54.418Z,5
2023-05-19T00:32:54.446Z,5
2023-05-19T00:35:54.435Z,5
2023-05-19T00:38:54.460Z,5.1
2023-05-19T00:41:54.444Z,5
2023-05-19T00:44:54.456Z,5.1
2023-05-19T00:47:54.471Z,5.1
2023-05-19T00:50:54.460Z,5.1
2023-05-19T00:53:54.474Z,5.1
2023-05-19T00:56:54.471Z,5.1
2023-05-19T00:59:54.472Z,5.1
2023-05-19T01:02:54.593Z,5.1
2023-05-19T01:05:54.495Z,5.1
2023-05-19T01:08:54.492Z,5.1
2023-05-19T01:11:54.501Z,5.1
2023-05-19T01:14:54.508Z,5.1
2023-05-19T01:17:54.529Z,5.1
2023-05-19T01:20:54.509Z,5.1
2023-05-19T01:23:54.511Z,5.1
2023-05-19T01:26:54.519Z,5.1
2023-05-19T01:29:54.559Z,5.2
2023-05-19T01:32:54.556Z,5.2
2023-05-19T01:35:54.542Z,5.2
2023-05-19T01:38:54.554Z,5.2
2023-05-19T01:41:54.541Z,5.2
2023-05-19T01:44:54.549Z,5.2
2023-05-19T01:47:54.592Z,5.2
2023-05-19T01:50:54.567Z,5.2
2023-05-19T01:53:54.563Z,5.2
2023-05-19T01:56:54.577Z,5.2
2023-05-19T01:59:54.580Z,5.2
2023-05-19T02:02:54.613Z,5.2
2023-05-19T02:05:54.588Z,5.2
2023-05-19T02:08:54.596Z,5.2
2023-05-19T02:11:54.595Z,5.2
2023-05-19T02:14:54.599Z,5.2
2023-05-19T02:17:54.676Z,5.2
2023-05-19T02:20:54.608Z,5.2
2023-05-19T02:23:54.608Z,5.1
2023-05-19T02:26:54.622Z,5.1
2023-05-19T02:29:54.626Z,5.1
2023-05-19T02:32:54.648Z,5.1
2023-05-19T02:35:54.626Z,5.1
2023-05-19T02:38:54.634Z,5.1
2023-05-19T02:41:54.630Z,5.1
2023-05-19T02:44:54.668Z,5.1
2023-05-19T02:47:54.649Z,5.1
2023-05-19T02:50:54.648Z,5.1
2023-05-19T02:53:54.655Z,5.1
2023-05-19T02:56:54.659Z,5
2023-05-19T02:59:54.647Z,5.1
2023-05-19T03:02:54.729Z,5.1
2023-05-19T03:05:54.663Z,5.1
2023-05-19T03:08:54.681Z,5.1
2023-05-19T03:11:54.675Z,5.1
2023-05-19T03:14:54.676Z,5.1
2023-05-19T03:17:54.741Z,5.1
2023-05-19T03:20:54.685Z,5.1
2023-05-19T03:23:54.685Z,5.1
2023-05-19T03:26:54.703Z,5.1
2023-05-19T03:29:54.713Z,5.1
2023-05-19T03:32:54.747Z,5.1
2023-05-19T03:35:54.718Z,5.1
2023-05-19T03:38:54.729Z,5.1
2023-05-19T03:41:54.720Z,5.1
2023-05-19T03:44:54.735Z,5.1
2023-05-19T03:47:54.755Z,5.1
2023-05-19T03:50:54.740Z,5.1
2023-05-19T03:53:54.749Z,5.2
2023-05-19T03:56:54.751Z,5.2
2023-05-19T03:59:54.750Z,5.2
2023-05-19T04:02:54.868Z,5.2
2023-05-19T04:05:54.763Z,5.2
2023-05-19T04:08:54.776Z,5.2
2023-05-19T04:11:54.772Z,5.2
2023-05-19T04:14:54.776Z,5.2
2023-05-19T04:17:54.805Z,5.2
2023-05-19T04:20:54.790Z,5.2
2023-05-19T04:23:54.790Z,5.2
2023-05-19T04:26:54.791Z,5.2
2023-05-19T04:29:54.818Z,5.1
2023-05-19T04:32:54.828Z,5.1
2023-05-19T04:35:54.811Z,5.1
2023-05-19T04:38:54.873Z,5.1
2023-05-19T04:41:54.820Z,5.1
2023-05-19T04:44:54.820Z,5.1
2023-05-19T04:47:54.827Z,5.1
2023-05-19T04:50:54.824Z,5.1
2023-05-19T04:53:54.833Z,5.2
2023-05-19T04:56:54.831Z,5.2
2023-05-19T04:59:54.838Z,5.3
2023-05-19T05:02:54.869Z,5.3
2023-05-19T05:05:54.865Z,5.4
2023-05-19T05:08:54.851Z,5.5
2023-05-19T05:11:54.854Z,5.6
2023-05-19T05:14:54.860Z,5.6
2023-05-19T05:17:54.882Z,5.7
2023-05-19T05:20:54.879Z,5.8
2023-05-19T05:23:54.880Z,5.8
2023-05-19T05:26:54.899Z,5.9
2023-05-19T05:29:55.611Z,6.1
2023-05-19T05:32:54.975Z,6.3
2023-05-19T05:35:54.929Z,6.5
2023-05-19T05:38:54.892Z,6.6
2023-05-19T05:41:54.898Z,6.9
2023-05-19T05:44:54.904Z,7
2023-05-19T05:47:54.944Z,7.2
2023-05-19T05:50:54.919Z,7.3
2023-05-19T05:53:54.917Z,7.4
2023-05-19T05:56:54.918Z,7.5
2023-05-19T05:59:54.925Z,7.2
2023-05-19T06:02:54.964Z,7.4
2023-05-19T06:05:55.194Z,7.4
2023-05-19T06:08:54.944Z,7
2023-05-19T06:11:54.944Z,7
2023-05-19T06:14:54.961Z,7.1
2023-05-19T06:17:54.971Z,7
2023-05-19T06:20:54.961Z,7.2
2023-05-19T06:23:54.962Z,7.3
2023-05-19T06:26:54.965Z,7.3
2023-05-19T06:29:54.975Z,7.6
2023-05-19T06:32:55.028Z,7.4
2023-05-19T06:35:54.988Z,7.2
2023-05-19T06:38:54.981Z,7.2
2023-05-19T06:41:54.992Z,7.3
2023-05-19T06:44:54.991Z,7.5
2023-05-19T06:47:55.007Z,7.2
2023-05-19T06:50:55.000Z,7.2
2023-05-19T06:53:55.011Z,7.5
2023-05-19T06:56:55.010Z,7.4
2023-05-19T06:59:55.008Z,7.3
2023-05-19T07:02:55.054Z,7.4
2023-05-19T07:05:55.037Z,7.6
2023-05-19T07:08:55.033Z,7.5
2023-05-19T07:11:55.031Z,7.6
2023-05-19T07:14:55.026Z,7.7
2023-05-19T07:17:55.092Z,7.6
2023-05-19T07:20:55.048Z,7.9
2023-05-19T07:23:55.070Z,7.8
2023-05-19T07:26:55.060Z,8
2023-05-19T07:29:55.057Z,7.9
2023-05-19T07:32:55.129Z,7.8
2023-05-19T07:35:55.057Z,7.9
2023-05-19T07:38:55.124Z,8.3
2023-05-19T07:41:55.074Z,8.1
2023-05-19T07:44:55.081Z,8
2023-05-19T07:47:55.116Z,8.1
2023-05-19T07:50:55.084Z,8.2
2023-05-19T07:53:55.091Z,8
2023-05-19T07:56:55.090Z,8.2
2023-05-19T07:59:55.112Z,8.1
2023-05-19T08:02:55.127Z,8.1
2023-05-19T08:05:55.106Z,8.2
2023-05-19T08:08:55.122Z,8.3
2023-05-19T08:11:55.124Z,8.2
2023-05-19T08:14:55.134Z,8.2
2023-05-19T08:17:55.218Z,8
2023-05-19T08:20:55.131Z,8.2
2023-05-19T08:23:55.144Z,8.3
2023-05-19T08:26:55.145Z,8.4
2023-05-19T08:29:55.153Z,8
2023-05-19T08:32:55.197Z,7.9
2023-05-19T08:35:55.165Z,8.5
2023-05-19T08:38:55.178Z,8
2023-05-19T08:41:55.181Z,7.6
2023-05-19T08:44:55.187Z,7.7
2023-05-19T08:47:55.213Z,8.1
2023-05-19T08:50:55.190Z,8
2023-05-19T08:53:55.191Z,8
2023-05-19T08:56:55.185Z,8.1
2023-05-19T08:59:55.198Z,7.8
2023-05-19T09:02:59.945Z,7.6
2023-05-19T09:05:55.239Z,7.5
2023-05-19T09:08:55.211Z,7.9
2023-05-19T09:11:55.226Z,7.9
2023-05-19T09:14:55.226Z,7.6
2023-05-19T09:17:55.254Z,7.9
2023-05-19T09:20:55.238Z,7.7
2023-05-19T09:23:55.242Z,7.4
2023-05-19T09:26:56.549Z,7
2023-05-19T09:29:55.250Z,7.2
2023-05-19T09:32:55.250Z,7.1
2023-05-19T09:35:55.263Z,7.3
2023-05-19T09:38:55.262Z,7
2023-05-19T09:41:55.269Z,7.1
2023-05-19T09:44:55.267Z,6.9
2023-05-19T09:47:55.339Z,6.7
2023-05-19T09:50:55.280Z,6.6
2023-05-19T09:53:55.275Z,7
2023-05-19T09:56:55.271Z,6.7
2023-05-19T09:59:55.287Z,7.1
2023-05-19T10:02:55.294Z,7.4
2023-05-19T10:05:55.340Z,7
2023-05-19T10:08:55.285Z,6.8
2023-05-19T10:11:55.282Z,7.2
2023-05-19T10:14:55.299Z,7
2023-05-19T10:17:55.294Z,7.1
2023-05-19T10:20:55.319Z,7.1
2023-05-19T10:23:55.319Z,6.6
2023-05-19T10:26:55.308Z,6.9
2023-05-19T10:29:55.334Z,6.6
2023-05-19T10:32:55.357Z,6.4
2023-05-19T10:35:55.339Z,7.1
2023-05-19T10:38:55.340Z,6.2
2023-05-19T10:41:55.360Z,5.9
2023-05-19T10:44:55.346Z,6.2
2023-05-19T10:47:55.393Z,6.3
2023-05-19T10:50:55.370Z,6
2023-05-19T10:53:55.369Z,6.2
2023-05-19T10:56:55.363Z,6.2
2023-05-19T10:59:55.372Z,6.4
2023-05-19T11:02:55.423Z,6.6
2023-05-19T11:05:55.367Z,6.1
2023-05-19T11:08:55.390Z,6.3
2023-05-19T11:11:55.404Z,5.9
2023-05-19T11:14:55.416Z,5.7
2023-05-19T11:17:55.467Z,5.9
2023-05-19T11:20:55.443Z,6.1
2023-05-19T11:23:55.437Z,5.6
2023-05-19T11:26:55.391Z,5.4
2023-05-19T11:29:55.399Z,5.5
2023-05-19T11:32:55.441Z,5.4
2023-05-19T11:35:55.428Z,5.4
2023-05-19T11:38:55.425Z,5.3
2023-05-19T11:41:55.425Z,6.1
2023-05-19T11:44:55.414Z,6
2023-05-19T11:48:01.807Z,5.9
2023-05-19T11:50:55.434Z,5.7
2023-05-19T11:53:55.431Z,5.7
2023-05-19T11:56:55.457Z,5.8
2023-05-19T11:59:55.445Z,6
2023-05-19T12:02:55.484Z,5.6
2023-05-19T12:05:55.469Z,5.9
2023-05-19T12:08:55.479Z,5.6
2023-05-19T12:11:55.466Z,5.6
2023-05-19T12:14:55.458Z,5.4
2023-05-19T12:17:55.544Z,5.7
2023-05-19T12:20:55.485Z,5.6
2023-05-19T12:23:55.484Z,5.6
2023-05-19T12:26:55.471Z,5.6
2023-05-19T12:29:55.482Z,5.6
2023-05-19T12:32:55.491Z,5.9
2023-05-19T12:35:55.497Z,6.1
2023-05-19T12:38:55.576Z,5.9
2023-05-19T12:41:55.513Z,5.9
2023-05-19T12:44:55.527Z,5.8
2023-05-19T12:47:55.555Z,5.8
2023-05-19T12:50:55.533Z,5.5
2023-05-19T12:53:55.520Z,5.5
2023-05-19T12:56:55.510Z,5.3
2023-05-19T12:59:55.552Z,5.5
2023-05-19T13:02:55.602Z,5.9
2023-05-19T13:05:55.538Z,5.9
2023-05-19T13:08:55.547Z,5.9
2023-05-19T13:11:55.534Z,5.8
2023-05-19T13:14:55.823Z,5.8
2023-05-19T13:17:55.567Z,5.7
2023-05-19T13:20:55.540Z,6.1
2023-05-19T13:23:55.556Z,5.6
2023-05-19T13:26:56.142Z,5.8
2023-05-19T13:29:55.566Z,5.8
2023-05-19T13:32:55.563Z,6
2023-05-19T13:35:55.550Z,6.2
2023-05-19T13:38:55.570Z,5.9
2023-05-19T13:41:55.581Z,5.3
2023-05-19T13:44:55.566Z,5.4
2023-05-19T13:47:55.599Z,5.8
2023-05-19T13:50:55.604Z,5.4
2023-05-19T13:53:55.607Z,5.7
2023-05-19T13:56:55.605Z,6
2023-05-19T14:00:02.351Z,5.9
2023-05-19T14:02:55.672Z,5.9
2023-05-19T14:05:55.644Z,5.9
2023-05-19T14:08:55.657Z,5.9
2023-05-19T14:11:55.649Z,5.9
2023-05-19T14:14:55.665Z,5.9
2023-05-19T14:17:55.696Z,5.9
2023-05-19T14:20:55.679Z,5.9
2023-05-19T14:23:55.685Z,6.1
2023-05-19T14:26:55.687Z,6.2
2023-05-19T14:29:55.723Z,6.1
2023-05-19T14:32:55.702Z,6.1
2023-05-19T14:35:55.698Z,6.2
2023-05-19T14:38:55.701Z,6.2
2023-05-19T14:41:55.716Z,5.9
2023-05-19T14:44:55.715Z,5.8
2023-05-19T14:47:55.760Z,5.9
2023-05-19T14:50:55.719Z,6
2023-05-19T14:53:55.740Z,6.2
2023-05-19T14:56:55.734Z,6.2
2023-05-19T14:59:55.748Z,6.1
2023-05-19T15:02:55.780Z,5.9
2023-05-19T15:05:55.764Z,5.9
2023-05-19T15:08:55.749Z,5.9
2023-05-19T15:11:55.758Z,5.9
2023-05-19T15:14:55.768Z,6
2023-05-19T15:17:55.775Z,5.9
2023-05-19T15:20:55.776Z,5.5
2023-05-19T15:23:55.771Z,5.6
2023-05-19T15:26:55.795Z,5.8
2023-05-19T15:29:55.788Z,5.6
2023-05-19T15:32:55.835Z,6
2023-05-19T15:35:55.798Z,5.8
2023-05-19T15:38:55.793Z,5.8
2023-05-19T15:41:55.798Z,5.9
2023-05-19T15:44:55.800Z,5.8
2023-05-19T15:47:55.835Z,5.8
2023-05-19T15:50:55.814Z,5.9
2023-05-19T15:53:55.826Z,6.2
2023-05-19T15:56:55.834Z,5.9
2023-05-19T15:59:55.827Z,6.2
2023-05-19T16:02:55.939Z,6.4
2023-05-19T16:05:55.828Z,6.3
2023-05-19T16:08:55.851Z,6.2
2023-05-19T16:11:55.848Z,6.2
2023-05-19T16:14:55.851Z,6.1
2023-05-19T16:17:55.916Z,6.6
2023-05-19T16:20:55.859Z,6.5
2023-05-19T16:23:55.862Z,6.3
2023-05-19T16:26:55.866Z,6
2023-05-19T16:29:55.863Z,6.1
2023-05-19T16:32:55.942Z,6.3
2023-05-19T16:35:55.890Z,6.4
2023-05-19T16:38:55.872Z,5.9
2023-05-19T16:41:55.881Z,5.8
2023-05-19T16:44:55.892Z,5.7
2023-05-19T16:47:55.948Z,5.8
2023-05-19T16:50:55.904Z,5.9
2023-05-19T16:53:55.915Z,5.9
2023-05-19T16:56:55.913Z,5.9
2023-05-19T16:59:55.917Z,6.1
2023-05-19T17:02:55.996Z,6.3
2023-05-19T17:05:55.934Z,6.4
2023-05-19T17:08:55.955Z,6.4
2023-05-19T17:11:55.937Z,6.3
2023-05-19T17:14:55.937Z,6.1
2023-05-19T17:17:56.012Z,5.9
2023-05-19T17:20:55.951Z,6.1
2023-05-19T17:23:55.949Z,6.2
2023-05-19T17:26:55.954Z,6.4
2023-05-19T17:29:55.957Z,6.4
2023-05-19T17:32:55.974Z,6.4
2023-05-19T17:35:55.998Z,6.3
2023-05-19T17:38:55.970Z,6.4
2023-05-19T17:41:55.986Z,6.4
2023-05-19T17:44:55.991Z,6.2
2023-05-19T17:47:56.019Z,6.2
2023-05-19T17:50:55.995Z,6.3
2023-05-19T17:53:56.024Z,6.4
2023-05-19T17:56:56.622Z,6.6
2023-05-19T17:59:56.014Z,6.7
2023-05-19T18:02:56.059Z,6.6
2023-05-19T18:05:56.029Z,6.6
2023-05-19T18:08:56.023Z,6.5
2023-05-19T18:11:56.025Z,6.5
2023-05-19T18:14:56.023Z,6.5
2023-05-19T18:17:56.086Z,6.5
2023-05-19T18:20:56.028Z,6.5
2023-05-19T18:23:56.047Z,6.5
2023-05-19T18:26:56.050Z,6.5
2023-05-19T18:29:56.057Z,6.5
2023-05-19T18:32:56.069Z,6.5
2023-05-19T18:35:56.063Z,6.5
2023-05-19T18:38:56.065Z,6.5
2023-05-19T18:41:56.071Z,6.4
2023-05-19T18:44:56.080Z,6.4
2023-05-19T18:47:56.128Z,6.4
2023-05-19T18:50:56.086Z,6.3
2023-05-19T18:53:56.089Z,6.3
2023-05-19T18:56:56.093Z,6.3
2023-05-19T18:59:56.084Z,6.2
2023-05-19T19:02:56.137Z,6.2
2023-05-19T19:05:56.105Z,6.3
2023-05-19T19:08:56.104Z,6.2
2023-05-19T19:11:56.116Z,6.2
2023-05-19T19:14:56.113Z,6.2
2023-05-19T19:17:56.130Z,6.2
2023-05-19T19:20:56.116Z,6.1
2023-05-19T19:23:56.129Z,6.1
2023-05-19T19:26:56.130Z,6.2
2023-05-19T19:29:56.134Z,6.2
2023-05-19T19:32:56.143Z,6.1
2023-05-19T19:35:56.138Z,6.1
2023-05-19T19:38:56.143Z,6.1
2023-05-19T19:41:56.164Z,6.1
2023-05-19T19:44:56.175Z,6.1
2023-05-19T19:47:56.204Z,6.1
2023-05-19T19:50:56.163Z,6.2
2023-05-19T19:53:56.174Z,6.1
2023-05-19T19:56:56.172Z,6.1
2023-05-19T19:59:56.183Z,6.1
2023-05-19T20:03:04.855Z,6.2
2023-05-19T20:05:56.205Z,6.1
2023-05-19T20:08:56.193Z,6.1
2023-05-19T20:11:56.203Z,6.2
2023-05-19T20:14:56.206Z,6.1
2023-05-19T20:17:56.306Z,6.1
2023-05-19T20:20:56.207Z,6.1
2023-05-19T20:23:56.208Z,6.2
2023-05-19T20:26:56.216Z,6.1
2023-05-19T20:29:56.229Z,6.2
2023-05-19T20:32:56.263Z,6.2
2023-05-19T20:35:56.236Z,6.2
2023-05-19T20:38:56.250Z,6.2
2023-05-19T20:41:56.248Z,6.2
2023-05-19T20:44:56.276Z,6.2
2023-05-19T20:47:56.290Z,6.2
2023-05-19T20:50:56.254Z,6.2
2023-05-19T20:53:56.274Z,6.2
2023-05-19T20:56:56.275Z,6.2
2023-05-19T20:59:56.280Z,6.2
2023-05-19T21:02:56.372Z,6.2
2023-05-19T21:05:56.294Z,6.2
2023-05-19T21:08:56.289Z,6.2
2023-05-19T21:11:56.294Z,6.2
2023-05-19T21:14:56.326Z,6.2
2023-05-19T21:17:56.317Z,6.2
2023-05-19T21:20:56.306Z,6.2
2023-05-19T21:23:56.314Z,6.3
2023-05-19T21:26:56.337Z,6.2
2023-05-19T21:29:56.325Z,6.3
2023-05-19T21:32:56.354Z,6.3
2023-05-19T21:35:56.332Z,6.2
2023-05-19T21:38:56.331Z,6.2
2023-05-19T21:41:56.335Z,6.2
2023-05-19T21:44:56.341Z,6.2
2023-05-19T21:47:56.380Z,6.1
2023-05-19T21:50:56.345Z,6.1
2023-05-19T21:53:56.348Z,6.1
2023-05-19T21:56:56.371Z,6.1
2023-05-19T21:59:56.356Z,6.1
2023-05-19T22:02:56.439Z,6.1
2023-05-19T22:05:56.372Z,6.1
2023-05-19T22:08:56.376Z,6.1
2023-05-19T22:11:56.378Z,6.1
2023-05-19T22:14:56.384Z,6.1
2023-05-19T22:17:56.495Z,6.1
2023-05-19T22:20:56.395Z,6.2
2023-05-19T22:23:56.401Z,6.2
2023-05-19T22:26:56.415Z,6.2
2023-05-19T22:29:56.406Z,6.1
2023-05-19T22:32:56.449Z,6.2
2023-05-19T22:35:56.425Z,6.2
2023-05-19T22:38:56.432Z,6.2
2023-05-19T22:41:56.433Z,6.3
2023-05-19T22:44:56.432Z,6.3
2023-05-19T22:47:56.457Z,6.3
2023-05-19T22:50:56.448Z,6.4
2023-05-19T22:53:56.449Z,6.4
2023-05-19T22:56:56.462Z,6.4
2023-05-19T22:59:56.467Z,6.4
2023-05-19T23:02:56.481Z,6.4
2023-05-19T23:05:56.470Z,6.4
2023-05-19T23:08:56.544Z,6.4
2023-05-19T23:11:56.478Z,6.5
2023-05-19T23:14:56.499Z,6.5
2023-05-19T23:17:56.486Z,6.5
2023-05-19T23:20:56.504Z,6.4
2023-05-19T23:23:56.505Z,6.4
2023-05-19T23:26:56.500Z,6.3
2023-05-19T23:29:56.515Z,6.3
2023-05-19T23:32:56.521Z,6.3
2023-05-19T23:35:56.522Z,6.3
2023-05-19T23:38:56.537Z,6.3
2023-05-19T23:41:56.546Z,6.3
2023-05-19T23:44:56.558Z,6.2
2023-05-19T23:47:56.575Z,6.1
2023-05-19T23:50:56.552Z,6.1
2023-05-19T23:53:56.564Z,6.1
2023-05-19T23:56:56.571Z,6.1
2023-05-19T23:59:56.577Z,6.1
